Time;durP1;ratioP1;P1;durP2;ratioP2;P2;SDS_P1;SDS_P2;PMS_P1;PMS_P2;Temp;Humidity;BMP_temperature;BMP_pressure;BME280_temperature;BME280_humidity;BME280_pressure;Samples;Min_cycle;Max_cycle;Signal;HPM_P1;HPM_P2
2020/12/18 00:02:20;;;;;;;11.33;7.30;;;;;;;1.05;100.00;101723.72;5038530;28;20220;-75
2020/12/18 00:04:46;;;;;;;12.93;7.77;;;;;;;1.07;100.00;101728.09;5032412;28;20806;-75
2020/12/18 00:07:12;;;;;;;16.57;7.90;;;;;;;1.05;100.00;101737.44;5052097;28;20198;-75
2020/12/18 00:09:39;;;;;;;16.73;7.77;;;;;;;1.02;100.00;101727.09;5052472;28;20624;-76
2020/12/18 00:12:04;;;;;;;14.37;8.10;;;;;;;1.00;100.00;101726.16;5056365;28;20201;-75
2020/12/18 00:14:31;;;;;;;19.10;9.13;;;;;;;1.03;100.00;101730.53;5055895;28;20669;-75
2020/12/18 00:16:57;;;;;;;16.70;8.27;;;;;;;0.99;100.00;101723.56;5048957;28;20207;-76
2020/12/18 00:19:22;;;;;;;13.93;8.40;;;;;;;0.94;100.00;101728.53;5058751;28;20259;-75
2020/12/18 00:21:48;;;;;;;17.50;9.20;;;;;;;0.97;100.00;101735.47;5059556;28;20203;-76
2020/12/18 00:24:14;;;;;;;17.03;8.87;;;;;;;0.92;100.00;101731.06;5054896;28;20200;-76
2020/12/18 00:26:41;;;;;;;17.77;8.57;;;;;;;0.89;100.00;101733.53;5056684;28;20195;-75
2020/12/18 00:29:08;;;;;;;15.93;8.13;;;;;;;0.90;100.00;101725.00;5055004;28;20199;-76
2020/12/18 00:31:34;;;;;;;16.63;8.83;;;;;;;0.92;100.00;101735.34;5048846;28;20265;-75
2020/12/18 00:34:00;;;;;;;17.10;8.37;;;;;;;0.92;100.00;101730.19;5054119;28;20286;-76
2020/12/18 00:36:26;;;;;;;16.67;9.43;;;;;;;0.98;100.00;101730.38;5046730;28;20197;-75
2020/12/18 00:38:52;;;;;;;17.47;8.93;;;;;;;1.04;100.00;101732.25;5051409;28;20282;-76
2020/12/18 00:41:17;;;;;;;15.30;8.87;;;;;;;1.05;100.00;101744.28;5054690;28;20655;-75
2020/12/18 00:43:44;;;;;;;17.03;9.13;;;;;;;1.06;100.00;101744.34;5059225;28;20294;-76
2020/12/18 00:46:10;;;;;;;17.53;9.03;;;;;;;1.06;100.00;101741.75;5057022;28;20191;-75
2020/12/18 00:48:36;;;;;;;19.17;9.47;;;;;;;1.06;100.00;101746.91;5048858;28;20187;-75
2020/12/18 00:51:02;;;;;;;18.17;9.57;;;;;;;1.09;100.00;101744.44;5055050;28;20625;-76
2020/12/18 00:53:28;;;;;;;16.77;8.73;;;;;;;1.10;100.00;101743.59;5038711;28;20196;-76
2020/12/18 00:55:54;;;;;;;18.50;9.40;;;;;;;1.11;100.00;101752.19;5057836;28;20336;-76
2020/12/18 00:58:20;;;;;;;16.27;9.33;;;;;;;1.10;100.00;101755.56;5034478;28;20621;-75
2020/12/18 01:00:49;;;;;;;20.90;9.67;;;;;;;1.13;100.00;101756.53;5033275;28;20220;-76
2020/12/18 01:03:20;;;;;;;19.47;10.17;;;;;;;1.13;100.00;101756.53;5034353;28;20267;-75
2020/12/18 01:05:46;;;;;;;16.57;9.57;;;;;;;1.17;100.00;101752.38;5038777;28;20195;-76
2020/12/18 01:08:17;;;;;;;20.20;10.07;;;;;;;1.19;100.00;101750.72;5037185;28;20784;-76
2020/12/18 01:10:43;;;;;;;17.87;9.80;;;;;;;1.20;100.00;101754.16;5049248;28;20275;-76
2020/12/18 01:13:09;;;;;;;19.97;10.53;;;;;;;1.23;100.00;101751.66;5053241;28;20221;-75
2020/12/18 01:15:36;;;;;;;20.20;9.73;;;;;;;1.24;100.00;101756.00;5032589;28;20204;-76
2020/12/18 01:18:14;;;;;;;19.37;9.77;;;;;;;1.21;100.00;101754.19;5031006;28;20210;-75
2020/12/18 01:20:46;;;;;;;21.60;10.37;;;;;;;1.19;100.00;101755.84;5033866;28;20286;-75
2020/12/18 01:23:12;;;;;;;20.53;9.63;;;;;;;1.16;100.00;101760.03;5044858;28;20618;-75
2020/12/18 01:25:40;;;;;;;19.97;9.83;;;;;;;1.08;100.00;101757.22;5037704;28;20257;-76
2020/12/18 01:28:06;;;;;;;23.93;10.40;;;;;;;1.04;100.00;101760.50;5037138;28;20688;-76
2020/12/18 01:30:32;;;;;;;22.70;10.57;;;;;;;1.00;100.00;101762.09;5033840;28;20250;-75
2020/12/18 01:32:59;;;;;;;20.50;10.40;;;;;;;0.98;100.00;101763.75;5056229;28;20195;-74
2020/12/18 01:35:26;;;;;;;25.23;11.03;;;;;;;0.94;100.00;101769.63;5033221;28;20262;-76
2020/12/18 01:37:59;;;;;;;17.87;9.97;;;;;;;0.89;100.00;101759.19;5033423;28;20839;-75
2020/12/18 01:40:27;;;;;;;19.53;10.17;;;;;;;0.83;100.00;101769.28;5031029;28;20223;-75
2020/12/18 01:42:54;;;;;;;18.83;10.73;;;;;;;0.78;100.00;101765.72;5037215;28;20916;-76
2020/12/18 01:45:20;;;;;;;20.43;10.27;;;;;;;0.76;100.00;101762.22;5050267;28;20298;-76
2020/12/18 01:48:04;;;;;;;20.87;10.00;;;;;;;0.71;100.00;101774.91;5044640;28;20282;-75
2020/12/18 01:50:38;;;;;;;19.60;10.03;;;;;;;0.65;100.00;101766.13;5032858;28;20250;-75
2020/12/18 01:53:04;;;;;;;20.97;10.67;;;;;;;0.60;100.00;101766.00;5050728;28;20285;-75
2020/12/18 01:55:43;;;;;;;19.13;10.33;;;;;;;0.56;100.00;101757.31;5034094;28;20209;-74
2020/12/18 01:58:10;;;;;;;22.67;10.73;;;;;;;0.50;100.00;101767.38;5047106;28;20222;-75
2020/12/18 02:00:43;;;;;;;17.87;9.40;;;;;;;0.42;100.00;101766.22;5035060;28;20232;-75
2020/12/18 02:03:14;;;;;;;19.63;9.93;;;;;;;0.37;100.00;101772.91;5041402;28;20218;-75
2020/12/18 02:05:56;;;;;;;21.17;9.90;;;;;;;0.31;100.00;101775.25;5040991;28;20684;-75
2020/12/18 02:08:36;;;;;;;20.03;9.63;;;;;;;0.30;100.00;101774.41;5045901;28;20290;-75
2020/12/18 02:11:40;;;;;;;19.10;10.53;;;;;;;0.35;100.00;101770.31;5025543;28;20637;-75
2020/12/18 02:14:14;;;;;;;21.20;9.67;;;;;;;0.38;100.00;101775.50;5050204;28;20257;-75
2020/12/18 02:16:43;;;;;;;19.97;9.40;;;;;;;0.35;100.00;101764.28;5034812;28;20206;-74
2020/12/18 02:19:19;;;;;;;22.17;10.47;;;;;;;0.34;100.00;101765.97;5030070;28;20223;-75
2020/12/18 02:21:47;;;;;;;21.17;10.30;;;;;;;0.29;100.00;101772.63;5023031;28;20197;-75
2020/12/18 02:24:24;;;;;;;21.43;10.23;;;;;;;0.27;100.00;101771.72;5045164;28;20280;-75
2020/12/18 02:26:51;;;;;;;21.90;10.40;;;;;;;0.27;100.00;101776.00;5051970;28;20190;-74
2020/12/18 02:29:18;;;;;;;22.83;9.80;;;;;;;0.23;100.00;101776.69;5027875;28;20338;-75
2020/12/18 02:31:53;;;;;;;23.80;10.37;;;;;;;0.20;100.00;101782.59;5029159;28;20214;-74
2020/12/18 02:34:29;;;;;;;23.07;10.50;;;;;;;0.13;100.00;101778.06;5051014;28;20268;-74
2020/12/18 02:37:02;;;;;;;19.93;10.23;;;;;;;0.07;100.00;101780.41;5045739;28;20209;-75
2020/12/18 02:39:33;;;;;;;22.07;10.00;;;;;;;0.03;100.00;101782.00;5050119;28;20632;-74
2020/12/18 02:42:04;;;;;;;22.53;9.57;;;;;;;0.03;100.00;101779.44;5033295;28;20206;-72
2020/12/18 02:44:41;;;;;;;23.77;9.87;;;;;;;0.07;100.00;101778.75;5036478;28;20731;-72
2020/12/18 02:47:26;;;;;;;18.87;10.33;;;;;;;0.05;100.00;101787.19;5047532;28;20242;-75
2020/12/18 02:49:52;;;;;;;22.00;10.17;;;;;;;0.04;100.00;101782.88;5039739;28;20837;-72
2020/12/18 02:52:18;;;;;;;23.53;10.43;;;;;;;0.03;100.00;101787.13;5043498;28;20197;-72
2020/12/18 02:55:23;;;;;;;22.03;10.10;;;;;;;-0.02;100.00;101786.06;4984321;28;20201;-75
2020/12/18 02:58:06;;;;;;;18.30;9.33;;;;;;;-0.06;100.00;101785.09;4967537;28;20252;-75
2020/12/18 03:00:43;;;;;;;18.30;9.47;;;;;;;-0.11;100.00;101789.19;5031791;28;20284;-75
2020/12/18 03:03:09;;;;;;;21.83;10.83;;;;;;;-0.15;100.00;101783.91;5029540;28;20214;-74
2020/12/18 03:05:36;;;;;;;22.10;11.07;;;;;;;-0.16;100.00;101789.84;5045723;28;20618;-75
2020/12/18 03:08:08;;;;;;;19.23;9.63;;;;;;;-0.16;100.00;101792.41;5032534;28;20571;-75
2020/12/18 03:10:34;;;;;;;22.80;10.57;;;;;;;-0.21;100.00;101794.81;5040434;28;20222;-75
2020/12/18 03:13:00;;;;;;;22.27;10.93;;;;;;;-0.22;100.00;101793.06;5048676;28;20198;-74
2020/12/18 03:15:27;;;;;;;20.60;10.23;;;;;;;-0.26;100.00;101797.19;5052410;28;20191;-72
2020/12/18 03:18:12;;;;;;;22.93;10.57;;;;;;;-0.31;100.00;101795.28;5038660;28;20203;-75
2020/12/18 03:20:39;;;;;;;25.57;10.93;;;;;;;-0.32;100.00;101796.97;5033479;28;20227;-75
2020/12/18 03:23:39;;;;;;;22.87;10.47;;;;;;;-0.33;100.00;101796.94;5050003;28;20251;-74
2020/12/18 03:26:15;;;;;;;21.23;10.77;;;;;;;-0.40;100.00;101798.38;5040651;28;20202;-74
2020/12/18 03:28:46;;;;;;;21.87;10.60;;;;;;;-0.45;100.00;101800.75;5047287;28;20214;-74
2020/12/18 03:31:14;;;;;;;26.43;11.07;;;;;;;-0.47;100.00;101798.97;5046809;28;20301;-74
2020/12/18 03:33:42;;;;;;;22.30;11.30;;;;;;;-0.49;100.00;101803.13;5038925;28;20203;-74
2020/12/18 03:36:20;;;;;;;21.80;10.03;;;;;;;-0.50;100.00;101798.84;5035350;28;20199;-74
2020/12/18 03:38:47;;;;;;;21.07;10.73;;;;;;;-0.50;100.00;101804.84;5032973;28;20200;-75
2020/12/18 03:41:12;;;;;;;21.10;10.53;;;;;;;-0.50;100.00;101814.22;5051682;28;20258;-74
2020/12/18 03:43:40;;;;;;;20.43;10.73;;;;;;;-0.55;100.00;101819.16;5057194;28;20211;-74
2020/12/18 03:46:08;;;;;;;20.50;10.60;;;;;;;-0.57;100.00;101813.09;5043783;28;20282;-75
2020/12/18 03:48:55;;;;;;;22.10;10.77;;;;;;;-0.59;100.00;101814.75;5024599;28;20226;-74
2020/12/18 03:51:30;;;;;;;18.00;10.17;;;;;;;-0.63;100.00;101815.44;5031582;28;20228;-74
2020/12/18 03:53:55;;;;;;;21.77;11.13;;;;;;;-0.69;100.00;101810.06;5033066;28;20196;-74
2020/12/18 03:56:31;;;;;;;18.40;9.57;;;;;;;-0.72;100.00;101817.63;5031116;28;20572;-74
2020/12/18 03:59:17;;;;;;;22.07;10.37;;;;;;;-0.77;100.00;101812.34;5055247;28;20225;-74
2020/12/18 04:01:55;;;;;;;19.93;10.87;;;;;;;-0.76;100.00;101811.50;5029208;28;20687;-74
2020/12/18 04:04:22;;;;;;;26.43;11.07;;;;;;;-0.76;100.00;101814.06;5056287;28;20215;-75
2020/12/18 04:06:49;;;;;;;20.17;10.80;;;;;;;-0.77;100.00;101820.03;5034357;28;20211;-74
2020/12/18 04:09:15;;;;;;;24.53;11.33;;;;;;;-0.78;100.00;101819.13;5053328;28;20385;-74
2020/12/18 04:11:49;;;;;;;20.97;10.93;;;;;;;-0.81;100.00;101825.81;5032953;28;20238;-74
2020/12/18 04:14:30;;;;;;;23.23;10.33;;;;;;;-0.79;100.00;101821.66;5040922;28;20205;-74
2020/12/18 04:17:06;;;;;;;20.30;9.90;;;;;;;-0.79;100.00;101821.66;5035035;28;20745;-75
2020/12/18 04:19:34;;;;;;;21.87;11.47;;;;;;;-0.74;100.00;101825.25;5030517;28;20227;-74
2020/12/18 04:22:00;;;;;;;23.37;10.47;;;;;;;-0.74;100.00;101825.25;5031897;28;20695;-74
2020/12/18 04:24:50;;;;;;;23.60;10.83;;;;;;;-0.74;100.00;101826.94;5053520;28;20246;-74
2020/12/18 04:27:18;;;;;;;23.20;11.03;;;;;;;-0.76;100.00;101826.88;5039254;28;20230;-74
2020/12/18 04:29:44;;;;;;;23.43;10.53;;;;;;;-0.77;100.00;101830.28;5033350;28;20324;-74
2020/12/18 04:32:12;;;;;;;24.23;11.03;;;;;;;-0.79;100.00;101834.47;5051538;28;20203;-75
2020/12/18 04:34:41;;;;;;;22.83;10.60;;;;;;;-0.77;100.00;101835.41;5049024;28;20278;-74
2020/12/18 04:37:26;;;;;;;21.83;11.50;;;;;;;-0.78;100.00;101831.94;5037177;28;20571;-75
2020/12/18 04:40:11;;;;;;;28.40;12.07;;;;;;;-0.78;100.00;101824.25;5030893;28;20218;-74
2020/12/18 04:42:55;;;;;;;21.37;11.50;;;;;;;-0.78;100.00;101831.94;5039194;28;20322;-74
2020/12/18 04:45:21;;;;;;;28.13;12.87;;;;;;;-0.77;100.00;101836.25;5042226;28;20199;-74
2020/12/18 04:47:54;;;;;;;20.50;11.30;;;;;;;-0.81;100.00;101833.50;5032850;28;20199;-74
2020/12/18 04:50:24;;;;;;;27.13;11.73;;;;;;;-0.86;100.00;101833.34;5032557;28;20224;-75
2020/12/18 04:53:10;;;;;;;26.60;11.83;;;;;;;-0.91;100.00;101829.72;5046314;28;20958;-74
2020/12/18 04:55:52;;;;;;;28.93;11.40;;;;;;;-0.92;100.00;101833.09;5031845;28;20191;-74
2020/12/18 04:58:24;;;;;;;22.67;11.47;;;;;;;-0.94;100.00;101827.03;5043301;28;20663;-74
2020/12/18 05:00:54;;;;;;;20.40;10.93;;;;;;;-0.94;100.00;101826.16;5044284;28;20227;-74
2020/12/18 05:03:37;;;;;;;25.10;11.40;;;;;;;-0.96;100.00;101826.09;5055709;28;20302;-75
2020/12/18 05:06:06;;;;;;;26.73;10.97;;;;;;;-1.01;100.00;101823.34;5046884;28;20204;-74
2020/12/18 05:08:34;;;;;;;24.07;11.27;;;;;;;-0.99;100.00;101831.97;5029240;28;20774;-74
2020/12/18 05:11:15;;;;;;;18.67;10.13;;;;;;;-0.98;100.00;101823.47;5036120;28;20644;-74
2020/12/18 05:13:42;;;;;;;22.47;10.43;;;;;;;-0.99;100.00;101831.97;5040271;28;20700;-74
2020/12/18 05:16:10;;;;;;;24.13;10.37;;;;;;;-0.98;100.00;101832.84;5028828;28;20660;-74
2020/12/18 05:18:42;;;;;;;21.40;9.97;;;;;;;-0.99;100.00;101837.06;5046806;28;20203;-75
2020/12/18 05:21:35;;;;;;;22.17;9.57;;;;;;;-1.01;100.00;101842.97;5022049;28;20200;-74
2020/12/18 05:24:05;;;;;;;22.37;9.13;;;;;;;-1.03;100.00;101842.91;5033377;28;20203;-75
2020/12/18 05:26:36;;;;;;;22.43;10.13;;;;;;;-1.02;100.00;101847.22;5031678;28;20207;-74
2020/12/18 05:29:08;;;;;;;18.33;9.50;;;;;;;-1.01;100.00;101840.41;5033600;28;20613;-74
2020/12/18 05:31:55;;;;;;;18.73;9.63;;;;;;;-1.03;100.00;101840.34;5046124;28;20290;-75
2020/12/18 05:34:29;;;;;;;21.87;9.67;;;;;;;-1.02;100.00;101846.31;5029516;28;20684;-74
2020/12/18 05:37:15;;;;;;;19.70;9.03;;;;;;;-1.04;100.00;101851.41;5024890;28;20281;-74
2020/12/18 05:40:07;;;;;;;22.50;9.47;;;;;;;-1.06;100.00;101854.69;5035625;28;20219;-74
2020/12/18 05:42:48;;;;;;;20.50;9.40;;;;;;;-1.02;100.00;101856.56;5031428;28;20214;-74
2020/12/18 05:45:20;;;;;;;27.47;10.57;;;;;;;-1.04;100.00;101855.63;5030117;28;20630;-75
2020/12/18 05:48:06;;;;;;;23.77;9.90;;;;;;;-1.07;100.00;101853.84;5040098;28;20313;-74
2020/12/18 05:50:48;;;;;;;23.20;9.40;;;;;;;-1.07;100.00;101856.41;5034916;28;20210;-75
2020/12/18 05:53:18;;;;;;;18.30;9.57;;;;;;;-1.06;100.00;101855.56;5035380;28;20570;-74
2020/12/18 05:55:52;;;;;;;27.40;9.70;;;;;;;-1.08;100.00;101853.75;5031396;28;20241;-74
2020/12/18 05:58:30;;;;;;;20.20;8.50;;;;;;;-1.08;100.00;101859.75;5037332;28;20211;-74
2020/12/18 06:01:19;;;;;;;19.40;9.03;;;;;;;-1.12;100.00;101860.44;5050682;28;20608;-75
2020/12/18 06:04:16;;;;;;;18.80;8.57;;;;;;;-1.11;100.00;101857.06;5012807;28;20240;-74
2020/12/18 06:06:46;;;;;;;16.17;8.43;;;;;;;-1.12;100.00;101854.47;5052724;28;20563;-74
2020/12/18 06:09:17;;;;;;;21.80;9.07;;;;;;;-1.08;100.00;101851.22;5027384;28;20222;-74
2020/12/18 06:11:44;;;;;;;19.57;8.53;;;;;;;-1.06;100.00;101862.38;5044855;28;20289;-74
2020/12/18 06:14:11;;;;;;;21.10;10.07;;;;;;;-1.01;100.00;101863.44;5035322;28;20203;-74
2020/12/18 06:17:07;;;;;;;28.07;9.57;;;;;;;-1.01;100.00;101869.44;5033674;28;20856;-74
2020/12/18 06:19:47;;;;;;;19.57;8.47;;;;;;;-1.03;100.00;101876.19;5046235;28;20224;-74
2020/12/18 06:22:20;;;;;;;18.77;9.30;;;;;;;-1.02;100.00;101877.03;5039278;28;20199;-74
2020/12/18 06:25:04;;;;;;;24.83;10.47;;;;;;;-1.02;100.00;101879.59;5034111;28;20199;-74
2020/12/18 06:27:55;;;;;;;30.77;12.17;;;;;;;-1.05;100.00;101884.63;5046060;28;20241;-74
2020/12/18 06:30:23;;;;;;;28.63;13.33;;;;;;;-1.04;100.00;101881.22;5026631;28;20318;-74
2020/12/18 06:33:15;;;;;;;27.20;12.13;;;;;;;-1.07;100.00;101886.22;5022913;28;20680;-75
2020/12/18 06:36:19;;;;;;;35.30;18.23;;;;;;;-1.04;100.00;101891.47;5052053;28;20207;-74
2020/12/18 06:38:57;;;;;;;45.30;22.07;;;;;;;-1.00;100.00;101890.81;5036777;28;20202;-74
2020/12/18 06:42:18;;;;;;;37.20;18.30;;;;;;;-1.02;100.00;101892.41;5038269;28;20714;-75
2020/12/18 06:45:14;;;;;;;48.13;18.93;;;;;;;-1.06;100.00;101896.53;5018767;28;20209;-74
2020/12/18 06:47:58;;;;;;;48.27;19.70;;;;;;;-1.04;100.00;101902.59;5046248;28;20682;-75
2020/12/18 06:50:25;;;;;;;48.37;20.90;;;;;;;-1.06;100.00;101901.66;5056518;28;20222;-74
2020/12/18 06:53:04;;;;;;;42.93;18.03;;;;;;;-1.03;100.00;101903.47;5035201;28;20202;-74
2020/12/18 06:55:42;;;;;;;46.50;17.80;;;;;;;-1.02;100.00;101903.53;5053785;28;20206;-74
2020/12/18 06:58:33;;;;;;;41.57;18.93;;;;;;;-1.01;100.00;101904.41;5049286;28;20242;-74
2020/12/18 07:01:00;;;;;;;43.80;17.17;;;;;;;-1.01;100.00;101902.72;5053442;28;20272;-75
2020/12/18 07:03:37;;;;;;;41.43;17.40;;;;;;;-1.01;100.00;101896.72;5055306;28;20254;-74
2020/12/18 07:06:05;;;;;;;40.80;16.73;;;;;;;-0.99;100.00;101902.78;5051635;28;20278;-74
2020/12/18 07:08:32;;;;;;;61.47;21.43;;;;;;;-0.98;100.00;101899.41;5047629;28;20226;-75
2020/12/18 07:11:01;;;;;;;55.47;20.77;;;;;;;-0.96;100.00;101900.34;5052988;28;20219;-75
2020/12/18 07:13:29;;;;;;;66.47;21.13;;;;;;;-0.91;100.00;101903.97;5058615;28;20191;-75
2020/12/18 07:15:58;;;;;;;66.17;25.07;;;;;;;-0.85;100.00;101895.66;5032188;28;20212;-74
2020/12/18 07:18:25;;;;;;;68.40;25.93;;;;;;;-0.82;100.00;101904.34;5053498;28;20607;-74
2020/12/18 07:20:53;;;;;;;44.67;17.97;;;;;;;-0.83;100.00;101896.59;5048596;28;20235;-74
2020/12/18 07:23:21;;;;;;;46.47;17.80;;;;;;;-0.84;100.00;101895.75;5049870;28;20276;-74
2020/12/18 07:25:47;;;;;;;56.60;20.40;;;;;;;-0.84;100.00;101900.00;5047998;28;20203;-74
2020/12/18 07:28:14;;;;;;;44.67;18.00;;;;;;;-0.88;100.00;101900.66;5053450;28;20203;-74
2020/12/18 07:30:42;;;;;;;41.77;16.93;;;;;;;-0.87;100.00;101897.28;5050959;28;20231;-74
2020/12/18 07:33:09;;;;;;;36.87;14.50;;;;;;;-0.85;100.00;101896.53;5053622;28;20560;-74
2020/12/18 07:35:37;;;;;;;32.83;14.77;;;;;;;-0.84;100.00;101895.75;5052237;28;20733;-75
2020/12/18 07:38:13;;;;;;;41.83;14.37;;;;;;;-0.83;100.00;101900.03;5051298;28;20203;-74
2020/12/18 07:40:40;;;;;;;36.47;14.73;;;;;;;-0.84;100.00;101908.53;5030514;28;20600;-74
2020/12/18 07:43:08;;;;;;;34.50;13.43;;;;;;;-0.79;100.00;101895.94;5048715;28;20261;-75
2020/12/18 07:45:38;;;;;;;40.13;14.60;;;;;;;-0.74;100.00;101896.97;5052842;28;20215;-74
2020/12/18 07:48:10;;;;;;;39.07;14.87;;;;;;;-0.71;100.00;101898.78;5039374;28;20199;-75
2020/12/18 07:50:36;;;;;;;33.67;14.47;;;;;;;-0.70;100.00;101900.53;5049069;28;20223;-74
2020/12/18 07:53:06;;;;;;;41.77;15.37;;;;;;;-0.68;100.00;101894.66;5050941;28;20260;-74
2020/12/18 07:55:32;;;;;;;37.03;14.70;;;;;;;-0.61;100.00;101900.91;5058543;28;20217;-74
2020/12/18 07:57:58;;;;;;;40.67;13.77;;;;;;;-0.60;100.00;101906.09;5047230;28;20195;-75
2020/12/18 08:00:24;;;;;;;42.10;14.43;;;;;;;-0.55;100.00;101902.84;5052028;28;20223;-74
2020/12/18 08:02:50;;;;;;;45.67;14.73;;;;;;;-0.51;100.00;101907.25;5051404;28;20673;-74
2020/12/18 08:05:21;;;;;;;39.47;16.27;;;;;;;-0.46;100.00;101903.19;5053020;28;20210;-75
2020/12/18 08:07:47;;;;;;;35.70;13.80;;;;;;;-0.40;100.00;101906.88;5051221;28;20629;-74
2020/12/18 08:10:14;;;;;;;33.77;13.20;;;;;;;-0.35;100.00;101901.94;5047860;28;20227;-74
2020/12/18 08:12:40;;;;;;;37.00;14.07;;;;;;;-0.31;100.00;101906.38;5045813;28;20211;-75
2020/12/18 08:15:11;;;;;;;29.60;11.23;;;;;;;-0.26;100.00;101906.56;5047894;28;20192;-74
2020/12/18 08:17:38;;;;;;;33.50;12.07;;;;;;;-0.19;100.00;101903.41;5028056;28;20284;-75
2020/12/18 08:20:05;;;;;;;33.77;12.67;;;;;;;-0.12;100.00;101897.69;5032407;28;20235;-74
2020/12/18 08:22:35;;;;;;;25.50;11.10;;;;;;;-0.07;100.00;101903.88;5052502;28;20251;-74
2020/12/18 08:25:03;;;;;;;27.27;9.63;;;;;;;-0.02;100.00;101902.38;5050140;28;20200;-75
2020/12/18 08:27:34;;;;;;;30.53;10.17;;;;;;;0.04;100.00;101904.28;5042747;28;20682;-75
2020/12/18 08:30:02;;;;;;;32.70;10.83;;;;;;;0.17;100.00;101892.78;5037834;28;20580;-75
2020/12/18 08:32:28;;;;;;;32.67;11.30;;;;;;;0.22;100.00;101901.50;5056001;28;20195;-75
2020/12/18 08:34:59;;;;;;;28.70;10.33;;;;;;;0.31;100.00;101899.28;5053875;28;20211;-75
2020/12/18 08:37:25;;;;;;;25.60;9.93;;;;;;;0.36;100.00;101902.03;5060425;28;20217;-75
2020/12/18 08:39:52;;;;;;;30.13;10.73;;;;;;;0.41;100.00;101903.06;5051261;28;20306;-75
2020/12/18 08:42:18;;;;;;;31.97;11.07;;;;;;;0.50;100.00;101910.22;5053637;28;20203;-75
2020/12/18 08:44:45;;;;;;;25.70;11.23;;;;;;;0.50;100.00;101912.78;5056084;28;20695;-75
2020/12/18 08:47:19;;;;;;;25.50;11.53;;;;;;;0.54;100.00;101909.50;5045612;28;20194;-75
2020/12/18 08:49:45;;;;;;;44.40;13.73;;;;;;;0.57;100.00;101907.03;5053380;28;20233;-75
2020/12/18 08:52:11;;;;;;;29.93;12.00;;;;;;;0.64;100.00;101908.16;5056480;28;20194;-75
2020/12/18 08:54:38;;;;;;;29.77;11.63;;;;;;;0.70;100.00;101913.47;5052528;28;20191;-75
2020/12/18 08:57:13;;;;;;;35.27;13.33;;;;;;;0.84;100.00;101909.69;5049247;28;20199;-75
2020/12/18 08:59:40;;;;;;;32.97;11.90;;;;;;;0.91;100.00;101909.06;5030368;28;20243;-75
2020/12/18 09:02:15;;;;;;;31.73;11.40;;;;;;;0.95;100.00;101915.22;5049471;28;20200;-75
2020/12/18 09:04:41;;;;;;;35.10;10.97;;;;;;;1.04;100.00;101909.47;5043156;28;20226;-75
2020/12/18 09:07:07;;;;;;;28.63;11.87;;;;;;;1.08;100.00;101907.06;5048711;28;20260;-74
2020/12/18 09:09:32;;;;;;;36.47;11.70;;;;;;;1.17;100.00;101898.81;5029979;28;20654;-75
2020/12/18 09:12:15;;;;;;;33.37;12.00;;;;;;;1.21;100.00;101897.22;5049390;28;20236;-75
2020/12/18 09:14:41;;;;;;;36.90;11.47;;;;;;;1.26;100.00;101901.66;5046678;28;20683;-76
2020/12/18 09:17:07;;;;;;;33.53;11.97;;;;;;;1.37;100.00;101898.56;5054698;28;20206;-76
2020/12/18 09:19:33;;;;;;;33.97;12.00;;;;;;;1.42;100.00;101900.47;5050242;28;20242;-74
2020/12/18 09:22:02;;;;;;;30.47;11.80;;;;;;;1.49;100.00;101902.41;5052742;28;20203;-73
2020/12/18 09:24:28;;;;;;;34.80;11.73;;;;;;;1.60;100.00;101904.44;5055092;28;20717;-74
2020/12/18 09:27:07;;;;;;;31.60;11.57;;;;;;;1.64;100.00;101896.00;5049750;28;20198;-74
2020/12/18 09:29:34;;;;;;;30.80;11.37;;;;;;;1.69;100.00;101903.03;5048325;28;20314;-73
2020/12/18 09:32:00;;;;;;;34.63;12.03;;;;;;;1.73;100.00;101913.44;5048661;28;20204;-73
2020/12/18 09:34:28;;;;;;;26.70;11.30;;;;;;;1.82;100.00;101906.84;5034174;28;20210;-74
2020/12/18 09:36:54;;;;;;;28.73;10.40;;;;;;;1.87;100.00;101907.84;5056462;28;20580;-74
2020/12/18 09:39:20;;;;;;;33.93;10.80;;;;;;;1.93;100.00;101903.72;5050231;28;20701;-74
2020/12/18 09:41:46;;;;;;;33.93;11.37;;;;;;;1.95;100.00;101900.34;5046697;28;20675;-73
2020/12/18 09:44:12;;;;;;;40.67;12.50;;;;;;;2.01;100.00;101897.97;5048476;28;20234;-74
2020/12/18 09:46:39;;;;;;;40.20;12.97;;;;;;;2.12;100.00;101895.72;5050323;28;20613;-74
2020/12/18 09:49:04;;;;;;;42.10;13.13;;;;;;;2.20;100.00;101899.41;5049072;28;20224;-73
2020/12/18 09:51:30;;;;;;;35.50;12.17;;;;;;;2.23;100.00;101901.16;5050196;28;20232;-74
2020/12/18 09:53:58;;;;;;;43.87;12.20;;;;;;;2.28;100.00;101899.59;5055347;28;20217;-74
2020/12/18 09:56:24;;;;;;;35.73;11.57;;;;;;;2.34;100.00;101902.38;5053561;28;20203;-74
2020/12/18 09:58:50;;;;;;;38.63;11.93;;;;;;;2.40;100.00;101907.66;5049690;28;20206;-73
2020/12/18 10:01:17;;;;;;;43.47;12.00;;;;;;;2.45;100.00;101907.81;5032253;28;20446;-74
2020/12/18 10:03:44;;;;;;;39.17;12.57;;;;;;;2.46;100.00;101905.28;5051106;28;20214;-74
2020/12/18 10:06:10;;;;;;;42.00;12.83;;;;;;;2.53;100.00;101897.72;5046438;28;20214;-74
2020/12/18 10:08:35;;;;;;;40.17;11.93;;;;;;;2.53;100.00;101898.56;5052846;28;20207;-74
2020/12/18 10:11:01;;;;;;;40.40;13.60;;;;;;;2.57;100.00;101896.94;5050459;28;20225;-74
2020/12/18 10:13:27;;;;;;;43.83;12.70;;;;;;;2.61;100.00;101902.22;5052444;28;20198;-74
2020/12/18 10:15:53;;;;;;;36.83;13.20;;;;;;;2.66;100.00;101897.22;5052708;28;20219;-74
2020/12/18 10:18:19;;;;;;;40.40;12.00;;;;;;;2.69;100.00;101889.59;5049873;28;20695;-74
2020/12/18 10:20:46;;;;;;;47.43;12.40;;;;;;;2.74;100.00;101893.13;5049424;28;20240;-74
2020/12/18 10:23:12;;;;;;;39.93;12.30;;;;;;;2.82;100.00;101895.91;5047880;28;20231;-74
2020/12/18 10:25:38;;;;;;;55.90;13.13;;;;;;;2.82;100.00;101886.47;5052678;28;20194;-74
2020/12/18 10:28:04;;;;;;;49.53;13.83;;;;;;;2.90;100.00;101893.53;5031756;28;20604;-74
2020/12/18 10:30:29;;;;;;;41.70;13.07;;;;;;;2.92;100.00;101889.28;5052071;28;20233;-74
2020/12/18 10:32:55;;;;;;;55.43;15.37;;;;;;;2.94;100.00;101895.38;5045220;28;20282;-73
2020/12/18 10:35:21;;;;;;;44.63;14.93;;;;;;;2.96;99.70;101886.84;5042754;28;20203;-74
2020/12/18 10:37:50;;;;;;;39.70;12.40;;;;;;;2.98;99.50;101890.31;5046756;28;20582;-74
2020/12/18 10:40:16;;;;;;;44.97;15.17;;;;;;;3.01;99.66;101884.38;5048442;28;20599;-74
2020/12/18 10:42:42;;;;;;;60.53;16.87;;;;;;;3.07;99.19;101879.38;5049314;28;20223;-73
2020/12/18 10:45:08;;;;;;;56.83;17.00;;;;;;;3.10;99.38;101876.00;5048614;28;20205;-74
2020/12/18 10:47:33;;;;;;;52.17;14.83;;;;;;;3.13;99.06;101876.97;5054395;28;20211;-74
2020/12/18 10:50:00;;;;;;;64.37;13.60;;;;;;;3.19;98.86;101879.66;5045788;28;20306;-74
2020/12/18 10:52:26;;;;;;;44.40;13.73;;;;;;;3.23;98.67;101880.59;5046593;28;20282;-74
2020/12/18 10:54:53;;;;;;;42.50;13.77;;;;;;;3.28;98.24;101875.56;5051167;28;20672;-74
2020/12/18 10:57:18;;;;;;;50.63;13.90;;;;;;;3.32;98.18;101882.53;5050942;28;20614;-74
2020/12/18 10:59:44;;;;;;;47.70;14.23;;;;;;;3.35;98.09;101874.88;5046833;28;20302;-74
2020/12/18 11:02:11;;;;;;;41.33;13.73;;;;;;;3.43;97.77;101875.94;5048274;28;20199;-74
2020/12/18 11:04:36;;;;;;;45.00;13.03;;;;;;;3.50;97.15;101874.34;5045879;28;20222;-74
2020/12/18 11:07:02;;;;;;;46.43;13.50;;;;;;;3.51;97.35;101871.81;5047292;28;20191;-74
2020/12/18 11:09:28;;;;;;;52.60;13.93;;;;;;;3.58;97.77;101871.13;5045758;28;20754;-74
2020/12/18 11:11:57;;;;;;;42.03;13.47;;;;;;;3.68;96.26;101876.50;5046568;28;20245;-74
2020/12/18 11:14:23;;;;;;;38.00;12.07;;;;;;;3.73;96.05;101878.34;5047008;28;20274;-74
2020/12/18 11:16:49;;;;;;;47.20;13.90;;;;;;;3.81;95.67;101877.63;5049856;28;20298;-74
2020/12/18 11:19:15;;;;;;;41.60;12.63;;;;;;;3.87;95.10;101872.59;5056300;28;20223;-74
2020/12/18 11:21:46;;;;;;;41.07;13.77;;;;;;;3.94;94.86;101872.78;5051623;28;20227;-74
2020/12/18 11:24:12;;;;;;;57.60;14.47;;;;;;;3.96;95.18;101867.66;5048905;28;20242;-74
2020/12/18 11:26:38;;;;;;;48.07;13.13;;;;;;;4.03;95.02;101871.19;5048191;28;20203;-74
2020/12/18 11:29:05;;;;;;;44.17;14.27;;;;;;;4.06;95.14;101866.09;5051838;28;20200;-74